Time;durP1;ratioP1;P1;durP2;ratioP2;P2;SDS_P1;SDS_P2;PMS_P1;PMS_P2;Temp;Humidity;BMP_temperature;BMP_pressure;BME280_temperature;BME280_humidity;BME280_pressure;Samples;Min_cycle;Max_cycle;Signal;HPM_P1;HPM_P2
2023/06/16 00:00:45;;;;;;;4.50;4.10;;;24.50;49.70;;;;;;4989063;28;20697;-82
2023/06/16 00:03:15;;;;;;;4.45;4.15;;;24.50;49.80;;;;;;4996997;28;20014;-84
2023/06/16 00:05:48;;;;;;;3.97;3.60;;;24.40;49.80;;;;;;4984022;28;20050;-83
2023/06/16 00:08:15;;;;;;;4.72;4.30;;;24.40;49.90;;;;;;4975778;28;20042;-85
2023/06/16 00:10:41;;;;;;;4.40;4.00;;;24.30;49.80;;;;;;4983070;28;20494;-84
2023/06/16 00:13:07;;;;;;;4.82;4.43;;;24.30;50.00;;;;;;4985155;28;20026;-83
2023/06/16 00:15:36;;;;;;;4.28;3.88;;;24.20;50.00;;;;;;4987817;28;20054;-83
2023/06/16 00:18:05;;;;;;;3.70;3.40;;;24.20;50.10;;;;;;4975133;28;20031;-83
2023/06/16 00:20:32;;;;;;;4.22;3.90;;;24.20;50.30;;;;;;4976266;28;20190;-84
2023/06/16 00:22:58;;;;;;;4.68;4.18;;;24.10;50.20;;;;;;4980615;28;20494;-82
2023/06/16 00:25:24;;;;;;;4.72;4.32;;;24.10;50.30;;;;;;4997104;28;20088;-85
2023/06/16 00:27:50;;;;;;;4.38;4.07;;;24.00;50.30;;;;;;4964847;28;20386;-83
2023/06/16 00:30:16;;;;;;;4.25;3.85;;;24.00;50.50;;;;;;4972263;28;20039;-83
2023/06/16 00:32:44;;;;;;;4.38;3.97;;;23.90;50.40;;;;;;4979072;28;20034;-83
2023/06/16 00:35:26;;;;;;;4.43;4.03;;;23.90;50.50;;;;;;4982953;28;20133;-83
2023/06/16 00:37:52;;;;;;;4.32;4.03;;;23.80;50.40;;;;;;4980761;28;20030;-84
2023/06/16 00:40:19;;;;;;;4.20;3.90;;;23.80;50.60;;;;;;4963680;28;20047;-82
2023/06/16 00:42:46;;;;;;;5.60;4.45;;;23.70;50.60;;;;;;4983438;28;20030;-84
2023/06/16 00:45:12;;;;;;;4.60;4.15;;;23.70;50.60;;;;;;4979989;28;20030;-83
2023/06/16 00:47:39;;;;;;;5.00;4.55;;;23.60;50.60;;;;;;4981677;28;20162;-84
2023/06/16 00:50:07;;;;;;;5.35;4.95;;;23.50;50.60;;;;;;4981882;28;20109;-83
2023/06/16 00:52:36;;;;;;;4.25;3.92;;;23.50;50.80;;;;;;4981485;28;20108;-82
2023/06/16 00:55:08;;;;;;;4.47;4.07;;;23.40;50.60;;;;;;4981726;28;20078;-83
2023/06/16 00:57:39;;;;;;;4.88;4.30;;;23.40;51.40;;;;;;4975522;28;20035;-83
2023/06/16 01:00:11;;;;;;;6.97;4.05;;;23.40;50.90;;;;;;4982156;28;20050;-83
2023/06/16 01:02:38;;;;;;;4.47;4.18;;;23.30;50.80;;;;;;4981916;28;20512;-83
2023/06/16 01:05:09;;;;;;;4.63;4.30;;;23.30;50.90;;;;;;4981122;28;20499;-82
2023/06/16 01:07:50;;;;;;;4.80;4.40;;;23.20;51.00;;;;;;4980148;28;20204;-82
2023/06/16 01:10:27;;;;;;;4.20;3.90;;;23.20;51.10;;;;;;4981385;28;20096;-85
2023/06/16 01:13:07;;;;;;;4.20;3.80;;;23.10;50.90;;;;;;4981404;28;20501;-83
2023/06/16 01:15:36;;;;;;;4.85;4.40;;;23.00;50.90;;;;;;4981818;28;20104;-83
2023/06/16 01:18:04;;;;;;;4.70;4.18;;;23.00;51.00;;;;;;4974066;28;20410;-84
2023/06/16 01:20:38;;;;;;;4.30;4.00;;;22.90;50.90;;;;;;4974706;28;20048;-83
2023/06/16 01:23:16;;;;;;;4.22;3.70;;;22.90;51.10;;;;;;4982442;28;20128;-83
2023/06/16 01:25:44;;;;;;;4.68;4.28;;;22.80;51.10;;;;;;4974021;28;20046;-84
2023/06/16 01:28:13;;;;;;;5.25;4.30;;;22.80;51.10;;;;;;4980796;28;20409;-83
2023/06/16 01:30:44;;;;;;;4.63;4.22;;;22.80;51.30;;;;;;4979888;28;20026;-84
2023/06/16 01:33:13;;;;;;;4.68;4.28;;;22.70;51.20;;;;;;4965506;28;20664;-84
2023/06/16 01:35:41;;;;;;;4.90;4.53;;;22.70;51.30;;;;;;4981980;28;20042;-84
2023/06/16 01:38:08;;;;;;;4.22;3.92;;;22.60;51.20;;;;;;4985032;28;20053;-84
2023/06/16 01:40:43;;;;;;;4.35;3.95;;;22.60;51.30;;;;;;4982732;28;20042;-85
2023/06/16 01:43:10;;;;;;;4.13;3.72;;;22.60;51.50;;;;;;4981653;28;20082;-84
2023/06/16 01:45:37;;;;;;;5.00;4.35;;;22.50;51.30;;;;;;4982923;28;20026;-86
2023/06/16 01:48:05;;;;;;;4.78;4.38;;;22.50;51.40;;;;;;4996543;28;20243;-85
2023/06/16 01:50:32;;;;;;;4.97;4.57;;;22.50;51.50;;;;;;4987305;28;20030;-86
2023/06/16 01:52:58;;;;;;;4.60;4.20;;;22.40;51.50;;;;;;4976625;28;20035;-84
2023/06/16 01:55:27;;;;;;;4.20;3.90;;;22.40;51.50;;;;;;5001861;28;20283;-85
2023/06/16 01:57:56;;;;;;;4.75;4.35;;;22.40;51.70;;;;;;4974279;28;20058;-85
2023/06/16 02:00:29;;;;;;;5.63;4.35;;;22.40;51.80;;;;;;4983952;28;20042;-85
2023/06/16 02:03:16;;;;;;;4.28;3.92;;;22.30;51.70;;;;;;4984760;28;20115;-87
2023/06/16 02:05:47;;;;;;;4.30;3.90;;;22.20;51.70;;;;;;4979039;28;20520;-85
2023/06/16 02:08:16;;;;;;;4.38;4.07;;;22.20;51.70;;;;;;4985082;28;20389;-85
2023/06/16 02:10:43;;;;;;;5.03;4.63;;;22.20;51.80;;;;;;4975379;28;20445;-85
2023/06/16 02:13:10;;;;;;;4.45;4.15;;;22.10;51.70;;;;;;4977731;28;20031;-85
2023/06/16 02:15:37;;;;;;;4.25;3.95;;;22.10;51.80;;;;;;4955975;28;20549;-84
2023/06/16 02:18:03;;;;;;;4.28;3.97;;;22.10;52.00;;;;;;4975384;28;20028;-84
2023/06/16 02:20:29;;;;;;;4.40;4.00;;;22.00;51.80;;;;;;4978521;28;20038;-84
2023/06/16 02:22:56;;;;;;;5.07;4.53;;;22.00;51.90;;;;;;4966915;28;20434;-86
2023/06/16 02:25:25;;;;;;;5.18;4.13;;;21.90;51.80;;;;;;4984618;28;20145;-87
2023/06/16 02:27:51;;;;;;;4.30;3.80;;;21.90;51.90;;;;;;4986340;28;20109;-88
2023/06/16 02:30:18;;;;;;;3.97;3.67;;;21.90;52.10;;;;;;4993853;28;20062;-86
2023/06/16 02:32:51;;;;;;;4.93;3.95;;;21.80;52.00;;;;;;4986058;28;20030;-86
2023/06/16 02:35:24;;;;;;;4.57;4.00;;;21.80;52.00;;;;;;4985895;28;20068;-85
2023/06/16 02:37:54;;;;;;;4.07;3.78;;;21.80;52.10;;;;;;4984443;28;20054;-87
2023/06/16 02:40:20;;;;;;;4.25;3.90;;;21.70;52.10;;;;;;4975876;28;20100;-83
2023/06/16 02:42:50;;;;;;;4.85;4.45;;;21.70;52.10;;;;;;4985717;28;20167;-85
2023/06/16 02:45:20;;;;;;;4.35;3.95;;;21.60;52.00;;;;;;4994492;28;20106;-83
2023/06/16 02:47:48;;;;;;;8.32;4.32;;;21.60;52.10;;;;;;4948897;28;20058;-82
2023/06/16 02:50:15;;;;;;;4.47;4.07;;;21.60;52.20;;;;;;4983895;28;20042;-83
2023/06/16 02:52:42;;;;;;;5.35;4.95;;;21.60;52.30;;;;;;4963269;28;20041;-83
2023/06/16 02:55:15;;;;;;;4.38;4.05;;;21.50;52.20;;;;;;4983610;28;20042;-84
2023/06/16 02:57:51;;;;;;;4.85;4.45;;;21.50;52.20;;;;;;4980229;28;20031;-82
2023/06/16 03:00:20;;;;;;;5.03;3.85;;;21.50;52.30;;;;;;4966607;28;20045;-84
2023/06/16 03:03:22;;;;;;;4.65;4.25;;;21.40;52.20;;;;;;4951175;28;20038;-84
2023/06/16 03:06:00;;;;;;;4.82;4.43;;;21.40;52.20;;;;;;4990939;28;20126;-82
2023/06/16 03:08:30;;;;;;;4.78;4.38;;;21.30;52.20;;;;;;4982222;28;20096;-82
2023/06/16 03:10:59;;;;;;;6.28;4.47;;;21.30;52.20;;;;;;4966988;28;20295;-83
2023/06/16 03:13:32;;;;;;;4.45;4.05;;;21.30;52.40;;;;;;4991561;28;20035;-84
2023/06/16 03:16:00;;;;;;;4.80;4.25;;;21.20;52.30;;;;;;4981552;28;20620;-84
2023/06/16 03:18:29;;;;;;;4.78;4.18;;;21.20;52.30;;;;;;4972605;28;20636;-83
2023/06/16 03:20:57;;;;;;;4.68;4.28;;;21.20;52.50;;;;;;4979257;28;20104;-83
2023/06/16 03:23:28;;;;;;;5.90;4.88;;;21.10;52.30;;;;;;4982412;28;20034;-82
2023/06/16 03:25:54;;;;;;;4.10;3.70;;;21.10;52.40;;;;;;4980867;28;20465;-83
2023/06/16 03:28:25;;;;;;;4.50;4.10;;;21.00;52.30;;;;;;4984782;28;20200;-82
2023/06/16 03:30:53;;;;;;;4.88;4.38;;;21.00;52.40;;;;;;4983646;28;20026;-85
2023/06/16 03:33:35;;;;;;;4.75;4.22;;;21.00;52.50;;;;;;4986743;28;20057;-85
2023/06/16 03:36:05;;;;;;;4.47;4.18;;;20.90;52.30;;;;;;4990808;28;20041;-85
2023/06/16 03:38:39;;;;;;;5.57;4.75;;;20.90;52.50;;;;;;4988966;28;20050;-84
2023/06/16 03:41:09;;;;;;;5.28;4.88;;;20.90;52.50;;;;;;4988529;28;20036;-86
2023/06/16 03:43:38;;;;;;;5.05;4.65;;;20.80;52.40;;;;;;4990774;28;20357;-85
2023/06/16 03:46:08;;;;;;;5.03;4.65;;;20.80;52.50;;;;;;4978699;28;20479;-86
2023/06/16 03:48:38;;;;;;;4.13;3.83;;;20.80;52.60;;;;;;4987106;28;20030;-86
2023/06/16 03:51:06;;;;;;;5.22;4.78;;;20.80;52.70;;;;;;4987191;28;20049;-84
2023/06/16 03:53:35;;;;;;;4.68;4.35;;;20.70;52.60;;;;;;4986626;28;20034;-83
2023/06/16 03:56:04;;;;;;;4.55;4.15;;;20.70;52.70;;;;;;4997216;28;20049;-84
2023/06/16 03:58:36;;;;;;;4.10;3.75;;;20.70;52.70;;;;;;4987721;28;20042;-84
2023/06/16 04:01:03;;;;;;;5.00;4.45;;;20.70;52.80;;;;;;4985844;28;20114;-83
2023/06/16 04:03:31;;;;;;;5.32;4.47;;;20.70;52.90;;;;;;4970841;28;20657;-84
2023/06/16 04:06:08;;;;;;;4.80;4.40;;;20.60;52.70;;;;;;5005305;28;20288;-83
2023/06/16 04:08:36;;;;;;;4.47;4.18;;;20.60;52.80;;;;;;4986512;28;20138;-82
2023/06/16 04:11:04;;;;;;;5.43;4.93;;;20.60;52.90;;;;;;4989431;28;20038;-85
2023/06/16 04:13:30;;;;;;;4.63;4.32;;;20.60;52.90;;;;;;4980083;28;20042;-87
2023/06/16 04:16:00;;;;;;;4.70;4.30;;;20.50;52.80;;;;;;4986344;28;20034;-84
2023/06/16 04:18:26;;;;;;;5.13;4.63;;;20.50;52.90;;;;;;4984517;28;20030;-82
2023/06/16 04:20:56;;;;;;;4.93;4.53;;;20.50;52.90;;;;;;4977888;28;20034;-84
2023/06/16 04:23:22;;;;;;;5.55;5.05;;;20.50;53.00;;;;;;4977979;28;20038;-85
2023/06/16 04:25:49;;;;;;;5.28;4.88;;;20.50;53.00;;;;;;4986647;28;20350;-84
2023/06/16 04:28:17;;;;;;;5.20;4.68;;;20.50;53.10;;;;;;4988302;28;20038;-84
2023/06/16 04:30:56;;;;;;;4.80;4.38;;;20.50;53.10;;;;;;4986427;28;20038;-85
2023/06/16 04:33:23;;;;;;;4.38;4.07;;;20.40;52.90;;;;;;4986339;28;20424;-82
2023/06/16 04:35:52;;;;;;;4.90;4.50;;;20.40;53.00;;;;;;4985109;28;20455;-83
2023/06/16 04:38:19;;;;;;;4.95;4.57;;;20.40;53.00;;;;;;4983296;28;20030;-83
2023/06/16 04:40:46;;;;;;;5.88;4.85;;;20.40;53.00;;;;;;4988430;28;20456;-81
2023/06/16 04:43:15;;;;;;;4.72;4.25;;;20.40;53.10;;;;;;4950633;28;20435;-81
2023/06/16 04:45:47;;;;;;;5.20;4.75;;;20.40;53.10;;;;;;4991333;28;20088;-81
2023/06/16 04:48:13;;;;;;;5.45;4.95;;;20.40;53.10;;;;;;4992041;28;20062;-82
2023/06/16 04:50:39;;;;;;;5.25;4.75;;;20.40;53.10;;;;;;4992623;28;20043;-82
2023/06/16 04:53:06;;;;;;;5.07;4.57;;;20.40;53.10;;;;;;4990097;28;20113;-83
2023/06/16 04:55:37;;;;;;;4.43;4.13;;;20.40;53.00;;;;;;4986385;28;20441;-82
2023/06/16 04:58:04;;;;;;;4.90;4.50;;;20.50;53.20;;;;;;4996355;28;20483;-82
2023/06/16 05:00:34;;;;;;;4.97;4.47;;;20.50;53.20;;;;;;4982632;28;20038;-79
2023/06/16 05:03:00;;;;;;;5.00;4.60;;;20.50;53.20;;;;;;4979527;28;20042;-84
2023/06/16 05:05:26;;;;;;;4.72;4.32;;;20.50;53.20;;;;;;4984019;28;20409;-83
2023/06/16 05:07:53;;;;;;;4.65;4.25;;;20.50;53.20;;;;;;5003459;28;20038;-85
2023/06/16 05:10:19;;;;;;;5.00;4.50;;;20.50;53.20;;;;;;4989719;28;20191;-81
2023/06/16 05:12:45;;;;;;;4.10;3.72;;;20.60;53.40;;;;;;4999131;28;20038;-86
2023/06/16 05:15:14;;;;;;;5.28;4.78;;;20.60;53.30;;;;;;4988673;28;20034;-83
2023/06/16 05:17:40;;;;;;;4.43;4.03;;;20.70;53.50;;;;;;4970780;28;20602;-80
2023/06/16 05:20:08;;;;;;;5.35;4.38;;;20.70;53.40;;;;;;4992841;28;20527;-81
2023/06/16 05:22:37;;;;;;;4.50;4.10;;;20.80;53.50;;;;;;4983894;28;20670;-83
2023/06/16 05:25:03;;;;;;;4.55;4.15;;;20.90;53.60;;;;;;4988040;28;20045;-82
2023/06/16 05:27:29;;;;;;;4.70;4.30;;;20.90;53.50;;;;;;4987877;28;20224;-85
2023/06/16 05:29:56;;;;;;;4.88;4.47;;;21.00;53.60;;;;;;4967908;28;20057;-83
2023/06/16 05:32:23;;;;;;;4.72;4.32;;;21.10;53.60;;;;;;5002567;28;20077;-85
2023/06/16 05:34:51;;;;;;;4.75;4.15;;;21.20;53.70;;;;;;4971199;28;20485;-87
2023/06/16 05:37:22;;;;;;;6.05;4.28;;;21.30;53.70;;;;;;4983823;28;20039;-90
2023/06/16 05:39:50;;;;;;;6.25;4.25;;;21.40;53.70;;;;;;4988228;28;20030;-88
2023/06/16 05:42:19;;;;;;;5.00;4.57;;;21.60;53.90;;;;;;4984414;28;20056;-87
2023/06/16 05:44:46;;;;;;;4.60;4.20;;;21.70;53.80;;;;;;4983356;28;20187;-88
2023/06/16 05:47:15;;;;;;;5.68;5.20;;;21.90;54.00;;;;;;4973490;28;20101;-87
2023/06/16 05:49:41;;;;;;;4.05;3.65;;;22.00;54.00;;;;;;4998946;28;20554;-84
2023/06/16 05:52:12;;;;;;;4.60;4.20;;;22.20;54.10;;;;;;4977021;28;20045;-84
2023/06/16 05:54:41;;;;;;;4.82;3.95;;;22.40;54.20;;;;;;4973049;28;20467;-82
2023/06/16 05:57:11;;;;;;;4.65;4.25;;;22.60;54.20;;;;;;4982068;28;20121;-81
2023/06/16 05:59:41;;;;;;;5.10;4.32;;;22.80;54.20;;;;;;4988462;28;20084;-82
2023/06/16 06:02:07;;;;;;;5.68;5.25;;;23.00;54.30;;;;;;4964334;28;20038;-83
2023/06/16 06:04:33;;;;;;;4.97;4.55;;;23.20;54.30;;;;;;4975961;28;20517;-79
2023/06/16 06:07:06;;;;;;;4.28;3.97;;;23.50;54.60;;;;;;4973867;28;20108;-81
2023/06/16 06:09:38;;;;;;;5.43;4.93;;;23.70;54.50;;;;;;4966038;28;20150;-81
2023/06/16 06:12:05;;;;;;;5.25;4.53;;;24.00;54.70;;;;;;4982077;28;20061;-79
2023/06/16 06:14:32;;;;;;;5.25;4.63;;;24.20;54.70;;;;;;4981811;28;20037;-78
2023/06/16 06:16:59;;;;;;;5.22;4.82;;;24.50;54.90;;;;;;4979757;28;20379;-81
2023/06/16 06:19:28;;;;;;;5.00;4.60;;;24.70;54.90;;;;;;4978330;28;20065;-82
2023/06/16 06:22:00;;;;;;;5.13;4.72;;;24.90;54.90;;;;;;4979394;28;20539;-83
2023/06/16 06:24:29;;;;;;;5.05;4.60;;;25.10;54.70;;;;;;4983425;28;20299;-84
2023/06/16 06:26:57;;;;;;;5.85;4.88;;;25.50;54.50;;;;;;4980324;28;20112;-84
2023/06/16 06:29:23;;;;;;;4.32;4.03;;;25.80;54.20;;;;;;4980889;28;20092;-82
2023/06/16 06:31:49;;;;;;;5.00;4.50;;;26.00;53.70;;;;;;4975062;28;20118;-79
2023/06/16 06:34:15;;;;;;;4.78;4.38;;;26.40;53.20;;;;;;4992492;28;20776;-82
2023/06/16 06:36:42;;;;;;;4.70;4.30;;;26.80;52.80;;;;;;4980116;28;20042;-85
2023/06/16 06:39:08;;;;;;;6.25;4.40;;;27.20;52.30;;;;;;4976718;28;20522;-86
2023/06/16 06:41:40;;;;;;;4.90;4.40;;;27.60;51.80;;;;;;4973151;28;20070;-86
2023/06/16 06:44:18;;;;;;;4.97;4.57;;;28.00;51.30;;;;;;4977124;28;20042;-85
2023/06/16 06:46:48;;;;;;;5.43;4.93;;;28.40;50.70;;;;;;4971927;28;20085;-84
2023/06/16 06:49:17;;;;;;;5.30;4.82;;;28.80;50.30;;;;;;4961222;28;20046;-84
2023/06/16 06:51:51;;;;;;;5.25;4.63;;;29.10;49.90;;;;;;4982370;28;20129;-84
2023/06/16 06:54:20;;;;;;;4.53;4.22;;;29.40;49.50;;;;;;4982281;28;20045;-85
2023/06/16 06:56:46;;;;;;;5.80;4.65;;;29.80;49.20;;;;;;4988149;28;20505;-83
2023/06/16 06:59:12;;;;;;;4.43;4.10;;;30.10;48.70;;;;;;4980808;28;20092;-80
2023/06/16 07:01:39;;;;;;;4.60;4.20;;;30.50;48.30;;;;;;4977573;28;20042;-81
2023/06/16 07:04:08;;;;;;;4.20;3.80;;;30.90;47.70;;;;;;4973508;28;20138;-82
2023/06/16 07:06:34;;;;;;;4.75;4.35;;;31.30;47.10;;;;;;4993813;28;20437;-83
2023/06/16 07:09:00;;;;;;;4.50;4.10;;;31.70;46.40;;;;;;4998289;28;20710;-80
2023/06/16 07:11:26;;;;;;;4.47;4.07;;;32.10;45.80;;;;;;4982967;28;20122;-83
2023/06/16 07:13:52;;;;;;;4.10;3.80;;;32.50;45.30;;;;;;4983149;28;20053;-82
2023/06/16 07:16:21;;;;;;;6.03;4.28;;;32.80;45.40;;;;;;4980151;28;20022;-84
2023/06/16 07:18:48;;;;;;;4.57;4.18;;;33.10;44.40;;;;;;4979088;28;20041;-82
2023/06/16 07:21:17;;;;;;;4.22;3.88;;;33.30;44.20;;;;;;4982426;28;20589;-84
2023/06/16 07:23:43;;;;;;;4.80;4.05;;;33.30;44.10;;;;;;4978601;28;20395;-86
2023/06/16 07:26:12;;;;;;;4.20;3.90;;;33.40;44.10;;;;;;4979940;28;20347;-83
2023/06/16 07:28:39;;;;;;;4.57;4.18;;;33.50;44.00;;;;;;4985122;28;20100;-82
2023/06/16 07:31:06;;;;;;;9.05;4.18;;;33.70;43.90;;;;;;4978546;28;20042;-84
2023/06/16 07:33:35;;;;;;;4.28;3.97;;;34.00;43.60;;;;;;4976739;28;20946;-80
2023/06/16 07:36:01;;;;;;;4.72;4.32;;;34.40;42.90;;;;;;4982083;28;20746;-84
2023/06/16 07:38:27;;;;;;;6.25;4.68;;;34.80;42.10;;;;;;4981972;28;20070;-84
2023/06/16 07:40:53;;;;;;;6.82;6.22;;;35.10;41.00;;;;;;4982727;28;20039;-81
2023/06/16 07:43:21;;;;;;;9.48;5.38;;;35.10;39.70;;;;;;4988812;28;20030;-82
2023/06/16 07:45:47;;;;;;;6.30;4.68;;;35.10;38.90;;;;;;4981876;28;20046;-83
2023/06/16 07:48:16;;;;;;;5.28;4.78;;;35.10;38.40;;;;;;4978874;28;20042;-84
2023/06/16 07:50:42;;;;;;;5.13;4.60;;;35.40;37.90;;;;;;4980189;28;20050;-81
2023/06/16 07:53:11;;;;;;;4.53;4.10;;;35.80;37.70;;;;;;4988915;28;20038;-85
2023/06/16 07:55:37;;;;;;;4.40;4.00;;;36.20;37.10;;;;;;4982614;28;20064;-84
2023/06/16 07:58:04;;;;;;;4.72;3.78;;;36.60;36.80;;;;;;4993824;28;20034;-81
2023/06/16 08:00:32;;;;;;;5.68;3.90;;;36.90;36.60;;;;;;4981342;28;20026;-81
2023/06/16 08:02:58;;;;;;;4.53;4.13;;;37.10;36.40;;;;;;4992260;28;20036;-83
2023/06/16 08:05:25;;;;;;;6.32;4.25;;;37.10;37.10;;;;;;4977693;28;20061;-82
2023/06/16 08:07:51;;;;;;;8.70;3.75;;;36.90;36.80;;;;;;4987073;28;20124;-83
2023/06/16 08:10:20;;;;;;;6.22;4.20;;;36.70;37.10;;;;;;4979680;28;20030;-82
2023/06/16 08:12:49;;;;;;;5.68;3.55;;;36.60;37.40;;;;;;4974789;28;20146;-81
2023/06/16 08:15:16;;;;;;;4.15;3.75;;;36.30;37.60;;;;;;4977755;28;20698;-81
2023/06/16 08:17:45;;;;;;;4.95;3.65;;;36.10;37.80;;;;;;4975164;28;20053;-80
2023/06/16 08:20:17;;;;;;;3.97;3.67;;;36.00;38.00;;;;;;4982222;28;20036;-81
2023/06/16 08:22:43;;;;;;;3.95;3.42;;;35.90;38.20;;;;;;4979882;28;20139;-82
2023/06/16 08:25:12;;;;;;;4.80;3.60;;;35.80;38.30;;;;;;4983234;28;20084;-82
2023/06/16 08:27:42;;;;;;;4.80;3.53;;;35.70;38.40;;;;;;4982631;28;20117;-82
2023/06/16 08:30:10;;;;;;;4.25;3.42;;;35.70;38.50;;;;;;4972225;28;20373;-82
2023/06/16 08:32:36;;;;;;;4.85;3.25;;;35.70;38.50;;;;;;4984982;28;20224;-83
2023/06/16 08:35:02;;;;;;;4.38;3.42;;;35.70;38.50;;;;;;4983280;28;20046;-82
2023/06/16 08:37:31;;;;;;;3.40;3.10;;;35.70;38.50;;;;;;4986805;28;20076;-83
2023/06/16 08:40:10;;;;;;;3.63;3.33;;;35.70;38.50;;;;;;4988932;28;20042;-82
2023/06/16 08:42:38;;;;;;;5.80;3.63;;;35.70;38.50;;;;;;4985862;28;20145;-82
2023/06/16 08:45:06;;;;;;;3.42;3.08;;;35.80;38.40;;;;;;4980264;28;20378;-81
2023/06/16 08:47:34;;;;;;;5.38;3.28;;;35.80;38.40;;;;;;4978063;28;20132;-82
2023/06/16 08:50:00;;;;;;;3.78;3.50;;;35.90;38.40;;;;;;4976479;28;20564;-80
2023/06/16 08:52:30;;;;;;;4.60;3.10;;;35.90;38.30;;;;;;4992450;28;20038;-81
2023/06/16 08:55:01;;;;;;;3.22;2.95;;;36.00;38.20;;;;;;4995213;28;20596;-81
2023/06/16 08:57:30;;;;;;;3.90;3.40;;;36.00;38.10;;;;;;4990051;28;20034;-83
2023/06/16 08:59:58;;;;;;;3.85;3.55;;;36.10;38.20;;;;;;4980263;28;20077;-81
2023/06/16 09:02:29;;;;;;;4.63;3.47;;;36.20;38.10;;;;;;4981866;28;20031;-83
2023/06/16 09:04:56;;;;;;;3.17;2.87;;;36.20;37.90;;;;;;4979910;28;20148;-80
2023/06/16 09:07:44;;;;;;;3.10;2.83;;;36.30;37.90;;;;;;4950766;28;20277;-79
2023/06/16 09:10:10;;;;;;;3.40;2.70;;;36.30;37.80;;;;;;4976994;28;20540;-81
2023/06/16 09:12:36;;;;;;;3.38;3.08;;;36.40;37.70;;;;;;4980661;28;20470;-81
2023/06/16 09:15:10;;;;;;;4.25;3.22;;;36.50;37.70;;;;;;4978985;28;20061;-80
2023/06/16 09:17:37;;;;;;;3.60;2.85;;;36.50;37.50;;;;;;4973096;28;20113;-82
2023/06/16 09:20:07;;;;;;;2.67;2.47;;;36.60;37.50;;;;;;4977440;28;20042;-82
2023/06/16 09:22:33;;;;;;;2.83;2.63;;;36.70;37.40;;;;;;4979169;28;20057;-81
2023/06/16 09:25:03;;;;;;;2.95;2.65;;;36.70;37.30;;;;;;4978494;28;20533;-83
2023/06/16 09:27:44;;;;;;;2.95;2.65;;;36.80;37.20;;;;;;4975663;28;20042;-82
2023/06/16 09:30:14;;;;;;;4.32;2.55;;;36.90;37.10;;;;;;4993175;28;20069;-83
2023/06/16 09:32:40;;;;;;;3.00;2.80;;;36.90;37.10;;;;;;4991869;28;20750;-80
2023/06/16 09:35:16;;;;;;;2.30;2.10;;;37.00;37.10;;;;;;4979296;28;20425;-81
2023/06/16 09:37:50;;;;;;;2.55;2.22;;;37.00;36.90;;;;;;4980565;28;20105;-84
2023/06/16 09:40:24;;;;;;;2.50;2.30;;;37.10;36.90;;;;;;4982255;28;20038;-82
2023/06/16 09:42:51;;;;;;;2.95;2.60;;;37.20;36.90;;;;;;4979717;28;20042;-82
2023/06/16 09:45:17;;;;;;;3.28;2.83;;;37.30;36.80;;;;;;4976718;28;20198;-81
2023/06/16 09:47:46;;;;;;;2.72;2.35;;;37.30;36.70;;;;;;4979566;28;20228;-85
2023/06/16 09:50:14;;;;;;;2.60;2.40;;;37.40;36.60;;;;;;4984834;28;20045;-84
2023/06/16 09:52:47;;;;;;;2.83;2.60;;;37.50;36.60;;;;;;4984706;28;20029;-83
2023/06/16 09:55:19;;;;;;;2.60;2.40;;;37.50;36.40;;;;;;4999187;28;20096;-82
2023/06/16 09:57:46;;;;;;;2.65;2.38;;;37.70;36.50;;;;;;4994052;28;21594;-83
2023/06/16 10:00:17;;;;;;;2.50;2.17;;;37.70;36.40;;;;;;4988937;28;20400;-86
2023/06/16 10:02:49;;;;;;;3.53;2.30;;;37.80;36.30;;;;;;4978261;28;20049;-84
2023/06/16 10:05:18;;;;;;;2.75;2.15;;;37.90;36.20;;;;;;4975780;28;20096;-83
2023/06/16 10:07:51;;;;;;;2.42;2.22;;;37.90;36.10;;;;;;4980322;28;20057;-83
2023/06/16 10:10:25;;;;;;;2.63;2.42;;;38.00;36.10;;;;;;4989761;28;20037;-81
2023/06/16 10:12:53;;;;;;;;;;;38.10;36.10;;;;;;4984785;28;20082;-82
2023/06/16 10:15:27;;;;;;;2.35;2.20;;;38.20;36.20;;;;;;4985752;28;19920;-81
2023/06/16 10:18:03;;;;;;;2.72;2.53;;;38.20;36.00;;;;;;4971758;28;20042;-84
2023/06/16 10:20:32;;;;;;;3.33;2.38;;;38.30;36.00;;;;;;4971964;28;20037;-81
2023/06/16 10:23:02;;;;;;;2.97;2.42;;;38.50;36.00;;;;;;4977506;28;20118;-83
2023/06/16 10:25:33;;;;;;;2.85;2.45;;;38.50;35.70;;;;;;4994280;28;20086;-82
2023/06/16 10:28:07;;;;;;;4.35;1.92;;;38.60;35.70;;;;;;4981988;28;20038;-83
2023/06/16 10:30:35;;;;;;;2.20;2.10;;;38.60;35.60;;;;;;4993746;28;20045;-83
2023/06/16 10:33:26;;;;;;;1.90;1.80;;;38.70;35.50;;;;;;4982256;28;20030;-82
2023/06/16 10:35:55;;;;;;;2.75;2.08;;;38.80;35.40;;;;;;4979348;28;20042;-82
2023/06/16 10:38:33;;;;;;;2.78;2.25;;;38.90;35.50;;;;;;5002873;28;20121;-83
2023/06/16 10:41:02;;;;;;;2.92;2.42;;;39.00;35.40;;;;;;4989263;28;20037;-84
2023/06/16 10:43:28;;;;;;;2.55;2.22;;;39.00;35.30;;;;;;4988072;28;20811;-84
2023/06/16 10:46:18;;;;;;;3.60;2.20;;;39.10;35.30;;;;;;4978420;28;20030;-83
2023/06/16 10:48:57;;;;;;;2.90;2.38;;;39.20;35.20;;;;;;4983045;28;20102;-84
2023/06/16 10:51:50;;;;;;;2.35;2.13;;;39.30;35.10;;;;;;4982812;28;20066;-85
2023/06/16 10:54:36;;;;;;;2.28;2.08;;;39.30;34.90;;;;;;4986772;28;20867;-84
2023/06/16 10:57:12;;;;;;;2.20;2.00;;;39.40;34.80;;;;;;4982341;28;20142;-83
2023/06/16 11:00:06;;;;;;;4.57;2.17;;;39.50;34.80;;;;;;4965745;28;20145;-83
2023/06/16 11:02:52;;;;;;;2.50;2.30;;;39.60;34.60;;;;;;4978605;28;20502;-83
2023/06/16 11:05:22;;;;;;;2.58;2.35;;;39.70;34.60;;;;;;4979651;28;20038;-85
2023/06/16 11:08:05;;;;;;;3.75;2.30;;;39.80;34.60;;;;;;4990059;28;20046;-81
2023/06/16 11:10:50;;;;;;;3.20;2.50;;;40.00;34.40;;;;;;4991815;28;20030;-85
2023/06/16 11:13:22;;;;;;;3.38;2.42;;;40.00;34.00;;;;;;4975941;28;20030;-82
2023/06/16 11:15:48;;;;;;;3.10;1.98;;;40.10;34.10;;;;;;4977613;28;20034;-84
2023/06/16 11:18:24;;;;;;;3.55;2.38;;;40.20;34.00;;;;;;4976220;28;20039;-82
2023/06/16 11:20:58;;;;;;;2.72;2.25;;;40.30;33.90;;;;;;4977635;28;20088;-80
2023/06/16 11:23:25;;;;;;;2.40;2.20;;;40.40;33.70;;;;;;4978973;28;20050;-81
2023/06/16 11:25:51;;;;;;;2.58;2.25;;;40.60;33.70;;;;;;4976711;28;20045;-81
2023/06/16 11:28:21;;;;;;;2.67;2.47;;;40.70;33.50;;;;;;4977944;28;20108;-82
2023/06/16 11:30:48;;;;;;;2.25;2.15;;;40.80;33.50;;;;;;4975507;28;20038;-82
2023/06/16 11:33:19;;;;;;;2.05;1.85;;;40.90;33.40;;;;;;4978648;28;20521;-82
2023/06/16 11:35:48;;;;;;;2.90;2.70;;;41.10;33.30;;;;;;4978333;28;20162;-83
2023/06/16 11:38:25;;;;;;;3.63;2.50;;;41.20;33.20;;;;;;4969197;28;20613;-83
2023/06/16 11:40:53;;;;;;;3.40;2.70;;;41.30;33.10;;;;;;4980565;28;20030;-84
2023/06/16 11:43:22;;;;;;;2.55;2.35;;;41.40;33.70;;;;;;4978651;28;20030;-83
2023/06/16 11:45:52;;;;;;;2.60;2.40;;;41.60;33.00;;;;;;4980218;28;20050;-83
2023/06/16 11:48:22;;;;;;;3.05;2.58;;;41.70;32.90;;;;;;4979665;28;20164;-82
2023/06/16 11:50:50;;;;;;;2.45;2.25;;;41.60;32.90;;;;;;4980372;28;20044;-83
2023/06/16 11:53:16;;;;;;;2.53;2.33;;;41.20;33.00;;;;;;4985899;28;20038;-83
2023/06/16 11:55:49;;;;;;;2.53;2.30;;;41.10;33.30;;;;;;4982471;28;20081;-83
2023/06/16 11:58:15;;;;;;;2.47;2.25;;;40.90;33.40;;;;;;4987692;28;20037;-82
2023/06/16 12:00:42;;;;;;;3.13;2.10;;;40.70;33.50;;;;;;4985898;28;20041;-83
2023/06/16 12:03:09;;;;;;;2.38;2.17;;;40.40;33.70;;;;;;4987195;28;20034;-82
2023/06/16 12:05:36;;;;;;;2.47;2.28;;;40.10;33.90;;;;;;4987757;28;20203;-81
2023/06/16 12:08:02;;;;;;;2.70;2.50;;;39.80;34.20;;;;;;4992947;28;20034;-83
2023/06/16 12:10:28;;;;;;;2.40;2.20;;;39.50;34.40;;;;;;4992446;28;20052;-83
2023/06/16 12:12:55;;;;;;;4.70;3.03;;;39.30;34.70;;;;;;4987775;28;20510;-82
2023/06/16 12:15:23;;;;;;;2.40;2.20;;;39.10;34.90;;;;;;4985686;28;20034;-83
2023/06/16 12:17:56;;;;;;;3.58;2.10;;;39.00;35.00;;;;;;4978637;28;20031;-83
2023/06/16 12:20:22;;;;;;;2.20;1.95;;;38.80;35.10;;;;;;5003317;28;20044;-81
2023/06/16 12:22:54;;;;;;;2.33;2.13;;;38.70;35.30;;;;;;4989330;28;20410;-81
2023/06/16 12:25:22;;;;;;;2.38;2.17;;;38.50;35.40;;;;;;4988242;28;20045;-83
2023/06/16 12:27:52;;;;;;;3.03;2.83;;;38.30;35.50;;;;;;4992926;28;20647;-82
2023/06/16 12:30:18;;;;;;;2.95;2.30;;;38.20;35.70;;;;;;4996919;28;20180;-80
2023/06/16 12:32:45;;;;;;;2.35;2.25;;;38.00;35.80;;;;;;4980399;28;20092;-80
2023/06/16 12:35:12;;;;;;;2.83;2.63;;;37.90;36.00;;;;;;4982345;28;20779;-83
2023/06/16 12:37:40;;;;;;;7.07;2.53;;;37.80;36.10;;;;;;4978731;28;20559;-82
2023/06/16 12:40:08;;;;;;;2.40;2.17;;;37.70;36.20;;;;;;4980884;28;20505;-84
2023/06/16 12:42:35;;;;;;;2.28;2.08;;;37.70;36.20;;;;;;4980993;28;20466;-82
2023/06/16 12:45:08;;;;;;;2.53;2.33;;;37.70;36.30;;;;;;4980825;28;20593;-83
2023/06/16 12:47:37;;;;;;;2.90;2.08;;;37.70;36.30;;;;;;4981365;28;20104;-82
2023/06/16 12:50:05;;;;;;;2.60;2.40;;;37.70;36.30;;;;;;4982010;28;20030;-83
2023/06/16 12:52:34;;;;;;;3.03;2.72;;;37.70;36.40;;;;;;4985955;28;20036;-83
2023/06/16 12:55:03;;;;;;;2.55;2.35;;;37.80;36.30;;;;;;4986244;28;20045;-84
2023/06/16 12:57:30;;;;;;;2.70;2.50;;;38.20;36.20;;;;;;4990366;28;20073;-83
2023/06/16 12:59:56;;;;;;;3.00;2.80;;;38.60;35.80;;;;;;4992116;28;20559;-82